sensor_id;sensor_type;location;lat;lon;timestamp;temperature;humidity
9201;DHT22;4635;48.686;9.008;2023-08-31T00:01:36;12.40;1.00
9201;DHT22;4635;48.686;9.008;2023-08-31T00:04:03;12.40;1.00
9201;DHT22;4635;48.686;9.008;2023-08-31T00:06:33;12.30;1.00
9201;DHT22;4635;48.686;9.008;2023-08-31T00:09:00;12.30;1.00
9201;DHT22;4635;48.686;9.008;2023-08-31T00:11:29;12.30;1.00
9201;DHT22;4635;48.686;9.008;2023-08-31T00:13:57;12.30;1.00
9201;DHT22;4635;48.686;9.008;2023-08-31T00:16:26;12.30;1.00
9201;DHT22;4635;48.686;9.008;2023-08-31T00:18:53;12.20;1.00
9201;DHT22;4635;48.686;9.008;2023-08-31T00:21:21;12.20;1.00
9201;DHT22;4635;48.686;9.008;2023-08-31T00:23:51;12.30;1.00
9201;DHT22;4635;48.686;9.008;2023-08-31T00:26:19;12.30;1.00
9201;DHT22;4635;48.686;9.008;2023-08-31T00:28:47;12.30;1.00
9201;DHT22;4635;48.686;9.008;2023-08-31T00:31:14;12.30;1.00
9201;DHT22;4635;48.686;9.008;2023-08-31T00:42:23;12.20;1.00
9201;DHT22;4635;48.686;9.008;2023-08-31T00:44:51;12.10;1.00
9201;DHT22;4635;48.686;9.008;2023-08-31T00:47:18;12.00;1.00
9201;DHT22;4635;48.686;9.008;2023-08-31T00:49:46;11.90;1.00
9201;DHT22;4635;48.686;9.008;2023-08-31T00:52:13;11.80;1.00
9201;DHT22;4635;48.686;9.008;2023-08-31T00:54:42;11.80;1.00
9201;DHT22;4635;48.686;9.008;2023-08-31T00:57:10;11.70;1.00
9201;DHT22;4635;48.686;9.008;2023-08-31T00:59:39;11.70;1.00
9201;DHT22;4635;48.686;9.008;2023-08-31T01:02:11;11.60;1.00
9201;DHT22;4635;48.686;9.008;2023-08-31T01:04:47;11.50;1.00
9201;DHT22;4635;48.686;9.008;2023-08-31T01:07:18;11.60;1.00
9201;DHT22;4635;48.686;9.008;2023-08-31T01:09:48;11.50;1.00
9201;DHT22;4635;48.686;9.008;2023-08-31T01:12:18;11.50;1.00
9201;DHT22;4635;48.686;9.008;2023-08-31T01:14:50;11.40;1.00
9201;DHT22;4635;48.686;9.008;2023-08-31T01:17:22;11.40;1.00
9201;DHT22;4635;48.686;9.008;2023-08-31T01:19:51;11.30;1.00
9201;DHT22;4635;48.686;9.008;2023-08-31T01:22:22;11.30;1.00
9201;DHT22;4635;48.686;9.008;2023-08-31T01:24:53;11.30;1.00
9201;DHT22;4635;48.686;9.008;2023-08-31T01:27:21;11.40;1.00
9201;DHT22;4635;48.686;9.008;2023-08-31T01:29:48;11.30;1.00
9201;DHT22;4635;48.686;9.008;2023-08-31T01:32:17;11.20;1.00
9201;DHT22;4635;48.686;9.008;2023-08-31T01:34:44;11.30;1.00
9201;DHT22;4635;48.686;9.008;2023-08-31T01:37:13;11.30;1.00
9201;DHT22;4635;48.686;9.008;2023-08-31T01:39:45;11.20;1.00
9201;DHT22;4635;48.686;9.008;2023-08-31T01:42:15;11.30;1.00
9201;DHT22;4635;48.686;9.008;2023-08-31T01:44:44;11.20;1.00
9201;DHT22;4635;48.686;9.008;2023-08-31T01:47:13;11.20;1.00
9201;DHT22;4635;48.686;9.008;2023-08-31T01:49:43;11.20;1.00
9201;DHT22;4635;48.686;9.008;2023-08-31T01:52:11;11.20;1.00
9201;DHT22;4635;48.686;9.008;2023-08-31T01:54:38;11.30;1.00
9201;DHT22;4635;48.686;9.008;2023-08-31T01:57:06;11.30;1.00
9201;DHT22;4635;48.686;9.008;2023-08-31T01:59:35;11.30;1.00
9201;DHT22;4635;48.686;9.008;2023-08-31T02:02:02;11.30;1.00
9201;DHT22;4635;48.686;9.008;2023-08-31T02:04:32;11.20;1.00
9201;DHT22;4635;48.686;9.008;2023-08-31T02:07:00;11.30;1.00
9201;DHT22;4635;48.686;9.008;2023-08-31T02:09:28;11.20;1.00
9201;DHT22;4635;48.686;9.008;2023-08-31T02:11:56;11.30;1.00
9201;DHT22;4635;48.686;9.008;2023-08-31T02:14:23;11.20;1.00
9201;DHT22;4635;48.686;9.008;2023-08-31T02:16:53;11.40;1.00
9201;DHT22;4635;48.686;9.008;2023-08-31T02:19:20;11.20;1.00
9201;DHT22;4635;48.686;9.008;2023-08-31T02:21:47;11.10;1.00
9201;DHT22;4635;48.686;9.008;2023-08-31T02:24:14;11.30;1.00
9201;DHT22;4635;48.686;9.008;2023-08-31T02:26:42;11.30;1.00
9201;DHT22;4635;48.686;9.008;2023-08-31T02:29:11;11.30;1.00
9201;DHT22;4635;48.686;9.008;2023-08-31T02:31:38;11.40;1.00
9201;DHT22;4635;48.686;9.008;2023-08-31T02:34:10;11.40;1.00
9201;DHT22;4635;48.686;9.008;2023-08-31T02:36:40;11.30;1.00
9201;DHT22;4635;48.686;9.008;2023-08-31T02:39:08;11.40;1.00
9201;DHT22;4635;48.686;9.008;2023-08-31T02:41:35;11.40;1.00
9201;DHT22;4635;48.686;9.008;2023-08-31T02:44:06;11.50;1.00
9201;DHT22;4635;48.686;9.008;2023-08-31T02:46:48;11.40;1.00
9201;DHT22;4635;48.686;9.008;2023-08-31T02:49:31;11.40;1.00
9201;DHT22;4635;48.686;9.008;2023-08-31T02:51:58;11.40;1.00
9201;DHT22;4635;48.686;9.008;2023-08-31T02:54:31;11.40;1.00
9201;DHT22;4635;48.686;9.008;2023-08-31T02:56:59;11.40;1.00
9201;DHT22;4635;48.686;9.008;2023-08-31T02:59:27;11.40;1.00
9201;DHT22;4635;48.686;9.008;2023-08-31T03:02:01;11.40;1.00
9201;DHT22;4635;48.686;9.008;2023-08-31T03:04:36;11.40;1.00
9201;DHT22;4635;48.686;9.008;2023-08-31T03:07:04;11.30;1.00
9201;DHT22;4635;48.686;9.008;2023-08-31T03:09:48;11.30;1.00
9201;DHT22;4635;48.686;9.008;2023-08-31T03:12:29;11.30;1.00
9201;DHT22;4635;48.686;9.008;2023-08-31T03:14:57;11.30;1.00
9201;DHT22;4635;48.686;9.008;2023-08-31T03:17:28;11.30;1.00
9201;DHT22;4635;48.686;9.008;2023-08-31T03:23:02;11.30;1.00
9201;DHT22;4635;48.686;9.008;2023-08-31T03:25:44;11.20;1.00
9201;DHT22;4635;48.686;9.008;2023-08-31T03:28:19;11.10;1.00
9201;DHT22;4635;48.686;9.008;2023-08-31T03:30:54;11.10;1.00
9201;DHT22;4635;48.686;9.008;2023-08-31T03:33:43;11.10;1.00
9201;DHT22;4635;48.686;9.008;2023-08-31T03:36:12;11.10;1.00
9201;DHT22;4635;48.686;9.008;2023-08-31T03:38:41;11.20;1.00
9201;DHT22;4635;48.686;9.008;2023-08-31T03:41:09;11.30;1.00
9201;DHT22;4635;48.686;9.008;2023-08-31T03:43:45;11.30;1.00
9201;DHT22;4635;48.686;9.008;2023-08-31T03:46:12;11.30;1.00
9201;DHT22;4635;48.686;9.008;2023-08-31T03:48:40;11.30;1.00
9201;DHT22;4635;48.686;9.008;2023-08-31T03:51:08;11.30;1.00
9201;DHT22;4635;48.686;9.008;2023-08-31T03:53:43;11.40;1.00
9201;DHT22;4635;48.686;9.008;2023-08-31T03:56:12;11.30;1.00
9201;DHT22;4635;48.686;9.008;2023-08-31T03:58:44;11.30;1.00
9201;DHT22;4635;48.686;9.008;2023-08-31T04:01:11;11.40;1.00
9201;DHT22;4635;48.686;9.008;2023-08-31T04:03:39;11.40;1.00
9201;DHT22;4635;48.686;9.008;2023-08-31T04:06:07;11.40;1.00
9201;DHT22;4635;48.686;9.008;2023-08-31T04:08:34;11.40;99.90
9201;DHT22;4635;48.686;9.008;2023-08-31T04:11:03;11.40;99.90
9201;DHT22;4635;48.686;9.008;2023-08-31T04:13:31;11.30;99.90
9201;DHT22;4635;48.686;9.008;2023-08-31T04:15:58;11.30;99.90
9201;DHT22;4635;48.686;9.008;2023-08-31T04:18:25;11.30;99.90
9201;DHT22;4635;48.686;9.008;2023-08-31T04:20:58;11.30;99.90
9201;DHT22;4635;48.686;9.008;2023-08-31T04:23:28;11.20;99.90
9201;DHT22;4635;48.686;9.008;2023-08-31T04:25:56;11.20;99.90
9201;DHT22;4635;48.686;9.008;2023-08-31T04:28:27;11.20;99.90
9201;DHT22;4635;48.686;9.008;2023-08-31T04:30:54;11.10;99.90
9201;DHT22;4635;48.686;9.008;2023-08-31T04:33:21;11.10;99.90
9201;DHT22;4635;48.686;9.008;2023-08-31T04:35:49;11.20;99.90
9201;DHT22;4635;48.686;9.008;2023-08-31T04:38:18;11.20;1.00
9201;DHT22;4635;48.686;9.008;2023-08-31T04:40:48;11.20;99.90
9201;DHT22;4635;48.686;9.008;2023-08-31T04:43:37;11.20;99.90
9201;DHT22;4635;48.686;9.008;2023-08-31T04:46:05;11.20;99.90
9201;DHT22;4635;48.686;9.008;2023-08-31T04:48:40;11.20;1.00
9201;DHT22;4635;48.686;9.008;2023-08-31T04:51:09;11.20;1.00
9201;DHT22;4635;48.686;9.008;2023-08-31T04:53:54;11.30;99.90
9201;DHT22;4635;48.686;9.008;2023-08-31T04:56:35;11.20;99.90
9201;DHT22;4635;48.686;9.008;2023-08-31T04:59:04;11.20;99.90
9201;DHT22;4635;48.686;9.008;2023-08-31T05:01:46;11.20;1.00
9201;DHT22;4635;48.686;9.008;2023-08-31T05:04:13;11.20;1.00
9201;DHT22;4635;48.686;9.008;2023-08-31T05:06:50;11.20;1.00
9201;DHT22;4635;48.686;9.008;2023-08-31T05:09:29;11.20;1.00
9201;DHT22;4635;48.686;9.008;2023-08-31T05:17:37;11.30;99.90
9201;DHT22;4635;48.686;9.008;2023-08-31T05:20:06;11.40;99.90
9201;DHT22;4635;48.686;9.008;2023-08-31T05:22:39;11.50;99.90
9201;DHT22;4635;48.686;9.008;2023-08-31T05:25:13;11.60;99.90
9201;DHT22;4635;48.686;9.008;2023-08-31T05:27:56;11.60;33.60
9201;DHT22;4635;48.686;9.008;2023-08-31T05:31:03;11.70;1.00
9201;DHT22;4635;48.686;9.008;2023-08-31T05:33:54;11.60;1.00
9201;DHT22;4635;48.686;9.008;2023-08-31T05:36:22;11.70;1.00
9201;DHT22;4635;48.686;9.008;2023-08-31T05:39:11;11.80;1.00
9201;DHT22;4635;48.686;9.008;2023-08-31T05:41:42;11.70;1.00
9201;DHT22;4635;48.686;9.008;2023-08-31T05:44:11;11.80;1.00
9201;DHT22;4635;48.686;9.008;2023-08-31T05:47:14;11.80;1.00
9201;DHT22;4635;48.686;9.008;2023-08-31T05:49:50;12.00;1.00
9201;DHT22;4635;48.686;9.008;2023-08-31T05:52:24;12.00;1.00
9201;DHT22;4635;48.686;9.008;2023-08-31T05:55:08;12.10;1.00
9201;DHT22;4635;48.686;9.008;2023-08-31T05:57:50;12.10;1.00
9201;DHT22;4635;48.686;9.008;2023-08-31T06:03:14;12.10;1.00
9201;DHT22;4635;48.686;9.008;2023-08-31T06:08:51;12.20;1.00
9201;DHT22;4635;48.686;9.008;2023-08-31T06:11:34;12.20;1.00
9201;DHT22;4635;48.686;9.008;2023-08-31T06:14:01;12.30;1.00
9201;DHT22;4635;48.686;9.008;2023-08-31T06:19:50;12.30;1.00
9201;DHT22;4635;48.686;9.008;2023-08-31T06:22:33;12.40;1.00
9201;DHT22;4635;48.686;9.008;2023-08-31T06:31:01;12.90;1.00
9201;DHT22;4635;48.686;9.008;2023-08-31T06:33:56;13.30;99.90
9201;DHT22;4635;48.686;9.008;2023-08-31T06:39:18;13.40;99.90
9201;DHT22;4635;48.686;9.008;2023-08-31T06:41:54;13.30;99.90
9201;DHT22;4635;48.686;9.008;2023-08-31T06:44:35;13.30;99.90
9201;DHT22;4635;48.686;9.008;2023-08-31T06:56:12;13.70;21.30
9201;DHT22;4635;48.686;9.008;2023-08-31T06:58:40;14.00;1.00
9201;DHT22;4635;48.686;9.008;2023-08-31T07:01:13;14.30;1.00
9201;DHT22;4635;48.686;9.008;2023-08-31T07:03:41;14.50;1.00
9201;DHT22;4635;48.686;9.008;2023-08-31T07:06:08;14.60;1.00
9201;DHT22;4635;48.686;9.008;2023-08-31T07:08:36;14.60;1.00
9201;DHT22;4635;48.686;9.008;2023-08-31T07:14:00;14.60;1.00
9201;DHT22;4635;48.686;9.008;2023-08-31T07:16:27;14.70;1.00
9201;DHT22;4635;48.686;9.008;2023-08-31T07:21:55;14.80;1.00
9201;DHT22;4635;48.686;9.008;2023-08-31T07:24:33;14.80;1.00
9201;DHT22;4635;48.686;9.008;2023-08-31T07:27:13;15.00;99.90
9201;DHT22;4635;48.686;9.008;2023-08-31T07:47:22;15.20;99.90
9201;DHT22;4635;48.686;9.008;2023-08-31T07:52:28;15.30;99.90
9201;DHT22;4635;48.686;9.008;2023-08-31T11:21:34;25.10;1.00
9201;DHT22;4635;48.686;9.008;2023-08-31T11:24:18;23.30;1.00
9201;DHT22;4635;48.686;9.008;2023-08-31T11:26:59;22.10;1.00
9201;DHT22;4635;48.686;9.008;2023-08-31T11:29:50;21.20;1.00
9201;DHT22;4635;48.686;9.008;2023-08-31T17:30:26;17.70;1.00
9201;DHT22;4635;48.686;9.008;2023-08-31T18:23:43;16.80;1.00
9201;DHT22;4635;48.686;9.008;2023-08-31T18:26:25;16.70;1.00
9201;DHT22;4635;48.686;9.008;2023-08-31T18:32:04;16.60;1.00
9201;DHT22;4635;48.686;9.008;2023-08-31T18:34:42;16.50;1.00
9201;DHT22;4635;48.686;9.008;2023-08-31T18:37:35;16.40;1.00
9201;DHT22;4635;48.686;9.008;2023-08-31T18:40:31;16.30;1.00
9201;DHT22;4635;48.686;9.008;2023-08-31T18:43:12;16.30;47.40
9201;DHT22;4635;48.686;9.008;2023-08-31T18:45:54;16.20;99.00
9201;DHT22;4635;48.686;9.008;2023-08-31T18:51:39;16.10;99.90
9201;DHT22;4635;48.686;9.008;2023-08-31T18:54:09;16.10;99.90
9201;DHT22;4635;48.686;9.008;2023-08-31T19:02:32;16.10;99.90
9201;DHT22;4635;48.686;9.008;2023-08-31T19:05:04;16.30;99.90
9201;DHT22;4635;48.686;9.008;2023-08-31T19:07:32;16.20;99.90
9201;DHT22;4635;48.686;9.008;2023-08-31T19:10:00;16.20;99.90
9201;DHT22;4635;48.686;9.008;2023-08-31T19:12:41;16.30;99.90
9201;DHT22;4635;48.686;9.008;2023-08-31T19:15:12;16.30;99.90
9201;DHT22;4635;48.686;9.008;2023-08-31T19:17:44;16.30;99.90
9201;DHT22;4635;48.686;9.008;2023-08-31T19:20:13;16.30;99.90
9201;DHT22;4635;48.686;9.008;2023-08-31T19:22:55;16.30;99.90
9201;DHT22;4635;48.686;9.008;2023-08-31T19:25:36;16.40;99.90
9201;DHT22;4635;48.686;9.008;2023-08-31T19:28:07;16.50;99.90
9201;DHT22;4635;48.686;9.008;2023-08-31T19:30:34;16.40;99.90
9201;DHT22;4635;48.686;9.008;2023-08-31T19:39:06;16.60;99.90
9201;DHT22;4635;48.686;9.008;2023-08-31T19:41:38;16.50;99.90
9201;DHT22;4635;48.686;9.008;2023-08-31T19:44:05;16.50;99.90
9201;DHT22;4635;48.686;9.008;2023-08-31T19:46:37;16.50;99.90
9201;DHT22;4635;48.686;9.008;2023-08-31T19:52:16;16.50;99.90
9201;DHT22;4635;48.686;9.008;2023-08-31T19:57:58;16.40;99.90
9201;DHT22;4635;48.686;9.008;2023-08-31T20:00:28;16.50;99.90
9201;DHT22;4635;48.686;9.008;2023-08-31T20:02:58;16.40;99.90
9201;DHT22;4635;48.686;9.008;2023-08-31T20:08:48;16.30;99.90
9201;DHT22;4635;48.686;9.008;2023-08-31T20:11:26;16.50;99.90
9201;DHT22;4635;48.686;9.008;2023-08-31T20:26:18;16.00;99.90
9201;DHT22;4635;48.686;9.008;2023-08-31T20:29:12;16.10;99.90
9201;DHT22;4635;48.686;9.008;2023-08-31T20:31:59;16.10;99.90
9201;DHT22;4635;48.686;9.008;2023-08-31T20:34:40;16.00;99.90
9201;DHT22;4635;48.686;9.008;2023-08-31T20:37:32;15.90;1.00
9201;DHT22;4635;48.686;9.008;2023-08-31T20:40:07;15.90;1.00
9201;DHT22;4635;48.686;9.008;2023-08-31T20:59:42;15.60;1.00
9201;DHT22;4635;48.686;9.008;2023-08-31T21:02:23;15.50;1.00
9201;DHT22;4635;48.686;9.008;2023-08-31T21:05:19;15.40;1.00
9201;DHT22;4635;48.686;9.008;2023-08-31T21:13:47;15.30;1.00
9201;DHT22;4635;48.686;9.008;2023-08-31T21:16:43;15.30;1.00
9201;DHT22;4635;48.686;9.008;2023-08-31T21:19:24;15.30;1.00
9201;DHT22;4635;48.686;9.008;2023-08-31T21:22:07;15.20;1.00
9201;DHT22;4635;48.686;9.008;2023-08-31T21:24:43;15.10;1.00
9201;DHT22;4635;48.686;9.008;2023-08-31T21:27:20;15.10;1.00
9201;DHT22;4635;48.686;9.008;2023-08-31T21:30:02;15.10;1.00
9201;DHT22;4635;48.686;9.008;2023-08-31T21:35:33;15.10;1.00
9201;DHT22;4635;48.686;9.008;2023-08-31T21:41:06;15.10;1.00
9201;DHT22;4635;48.686;9.008;2023-08-31T21:43:39;15.20;1.00
9201;DHT22;4635;48.686;9.008;2023-08-31T21:46:27;15.20;1.00
9201;DHT22;4635;48.686;9.008;2023-08-31T21:49:35;15.20;1.00
9201;DHT22;4635;48.686;9.008;2023-08-31T21:55:16;15.30;1.00
9201;DHT22;4635;48.686;9.008;2023-08-31T21:57:44;15.40;1.00
9201;DHT22;4635;48.686;9.008;2023-08-31T22:00:27;15.40;99.90
9201;DHT22;4635;48.686;9.008;2023-08-31T22:03:08;15.50;99.90
9201;DHT22;4635;48.686;9.008;2023-08-31T22:05:49;15.50;99.90
9201;DHT22;4635;48.686;9.008;2023-08-31T22:08:18;15.50;99.90
9201;DHT22;4635;48.686;9.008;2023-08-31T22:11:08;15.50;99.90
9201;DHT22;4635;48.686;9.008;2023-08-31T22:13:52;15.60;99.90
9201;DHT22;4635;48.686;9.008;2023-08-31T22:16:32;15.60;99.90
9201;DHT22;4635;48.686;9.008;2023-08-31T22:19:03;15.60;99.90
9201;DHT22;4635;48.686;9.008;2023-08-31T22:21:50;15.60;99.90
9201;DHT22;4635;48.686;9.008;2023-08-31T22:24:19;15.60;99.90
9201;DHT22;4635;48.686;9.008;2023-08-31T22:27:04;15.60;99.90
9201;DHT22;4635;48.686;9.008;2023-08-31T22:35:20;15.60;99.90
9201;DHT22;4635;48.686;9.008;2023-08-31T22:38:04;15.60;99.90
9201;DHT22;4635;48.686;9.008;2023-08-31T22:40:48;15.60;99.90
9201;DHT22;4635;48.686;9.008;2023-08-31T23:10:17;15.30;99.90
9201;DHT22;4635;48.686;9.008;2023-08-31T23:16:02;15.00;1.00
9201;DHT22;4635;48.686;9.008;2023-08-31T23:18:46;15.10;1.00
9201;DHT22;4635;48.686;9.008;2023-08-31T23:21:28;15.00;1.00
9201;DHT22;4635;48.686;9.008;2023-08-31T23:23:56;15.10;1.00
9201;DHT22;4635;48.686;9.008;2023-08-31T23:26:40;15.00;1.00
9201;DHT22;4635;48.686;9.008;2023-08-31T23:29:11;15.10;1.00
9201;DHT22;4635;48.686;9.008;2023-08-31T23:31:43;15.00;1.00
9201;DHT22;4635;48.686;9.008;2023-08-31T23:34:24;15.00;1.00
9201;DHT22;4635;48.686;9.008;2023-08-31T23:37:06;15.00;1.00
9201;DHT22;4635;48.686;9.008;2023-08-31T23:39:36;15.10;1.00
9201;DHT22;4635;48.686;9.008;2023-08-31T23:45:10;15.10;1.00
9201;DHT22;4635;48.686;9.008;2023-08-31T23:47:41;15.10;1.00
9201;DHT22;4635;48.686;9.008;2023-08-31T23:50:18;15.10;1.00
9201;DHT22;4635;48.686;9.008;2023-08-31T23:52:52;15.20;1.00
9201;DHT22;4635;48.686;9.008;2023-08-31T23:55:24;15.10;1.00
9201;DHT22;4635;48.686;9.008;2023-08-31T23:57:52;15.10;1.00
